createdAt,value
2018-03-08T00:01:27.442Z,68.58
2018-03-08T00:03:55.021Z,68.48
2018-03-08T00:06:22.586Z,68.50
2018-03-08T00:08:50.431Z,68.55
2018-03-08T00:11:17.976Z,68.21
2018-03-08T00:13:46.310Z,68.19
2018-03-08T00:16:13.909Z,68.34
2018-03-08T00:18:41.460Z,67.84
2018-03-08T00:21:09.013Z,67.62
2018-03-08T00:23:36.691Z,67.48
2018-03-08T00:26:04.244Z,67.48
2018-03-08T00:28:31.829Z,67.56
2018-03-08T00:30:59.438Z,67.79
2018-03-08T00:33:27.004Z,67.98
2018-03-08T00:35:54.564Z,68.13
2018-03-08T00:38:25.212Z,68.16
2018-03-08T00:40:52.776Z,68.31
2018-03-08T00:43:20.398Z,68.59
2018-03-08T00:45:48.278Z,68.31
2018-03-08T00:48:15.851Z,68.09
2018-03-08T00:50:43.785Z,67.70
2018-03-08T00:53:11.446Z,67.49
2018-03-08T00:55:39.007Z,67.23
2018-03-08T00:58:06.630Z,66.51
2018-03-08T01:00:34.484Z,66.67
2018-03-08T01:03:02.036Z,66.60
2018-03-08T01:05:29.833Z,66.60
2018-03-08T01:07:57.446Z,66.67
2018-03-08T01:10:25.071Z,66.91
2018-03-08T01:12:52.626Z,67.16
2018-03-08T01:15:20.228Z,67.61
2018-03-08T01:17:47.896Z,67.84
2018-03-08T01:20:15.474Z,68.02
2018-03-08T01:22:43.093Z,67.82
2018-03-08T01:25:10.661Z,67.58
2018-03-08T01:27:38.278Z,67.36
2018-03-08T01:30:05.899Z,66.94
2018-03-08T01:32:33.727Z,66.84
2018-03-08T01:35:01.291Z,66.88
2018-03-08T01:37:28.897Z,66.87
2018-03-08T01:39:57.024Z,66.70
2018-03-08T01:42:24.564Z,66.68
2018-03-08T01:44:52.410Z,66.66
2018-03-08T01:47:19.992Z,66.76
2018-03-08T01:49:47.583Z,66.64
2018-03-08T01:52:15.562Z,66.58
2018-03-08T01:54:43.761Z,66.58
2018-03-08T01:57:11.359Z,66.72
2018-03-08T01:59:38.998Z,66.82
2018-03-08T02:02:06.554Z,67.25
2018-03-08T02:04:34.133Z,67.71
2018-03-08T02:07:01.782Z,68.32
2018-03-08T02:09:29.342Z,68.89
2018-03-08T02:11:57.097Z,68.60
2018-03-08T02:14:24.696Z,68.35
2018-03-08T02:16:52.326Z,68.17
2018-03-08T02:19:19.920Z,67.66
2018-03-08T02:21:47.820Z,67.29
2018-03-08T02:24:15.393Z,66.42
2018-03-08T02:26:43.574Z,66.23
2018-03-08T02:29:14.938Z,66.02
2018-03-08T02:31:42.485Z,66.06
2018-03-08T02:34:10.045Z,65.91
2018-03-08T02:36:37.662Z,65.63
2018-03-08T02:39:05.322Z,65.23
2018-03-08T02:41:32.883Z,64.96
2018-03-08T02:44:00.500Z,64.83
2018-03-08T02:46:28.056Z,64.20
2018-03-08T02:48:55.622Z,64.62
2018-03-08T02:51:23.290Z,64.25
2018-03-08T02:53:50.846Z,63.84
2018-03-08T02:56:18.399Z,64.37
2018-03-08T02:58:46.300Z,63.84
2018-03-08T03:01:13.935Z,64.31
2018-03-08T03:03:41.676Z,64.37
2018-03-08T03:06:09.569Z,64.37
2018-03-08T03:08:37.142Z,64.29
2018-03-08T03:11:04.810Z,64.44
2018-03-08T03:13:32.495Z,64.60
2018-03-08T03:16:00.053Z,64.55
2018-03-08T03:18:28.448Z,64.90
2018-03-08T03:20:56.097Z,65.02
2018-03-08T03:23:23.714Z,64.74
2018-03-08T03:25:51.361Z,64.91
2018-03-08T03:28:18.952Z,64.90
2018-03-08T03:30:46.919Z,64.69
2018-03-08T03:33:14.492Z,64.73
2018-03-08T03:35:42.374Z,65.16
2018-03-08T03:38:09.944Z,65.33
2018-03-08T03:40:37.769Z,65.62
2018-03-08T03:43:05.657Z,65.87
2018-03-08T03:45:33.221Z,66.46
2018-03-08T03:48:00.819Z,66.30
2018-03-08T03:50:28.416Z,66.30
2018-03-08T03:52:55.977Z,66.04
2018-03-08T03:55:23.553Z,65.91
2018-03-08T03:57:51.152Z,65.89
2018-03-08T04:00:18.737Z,65.62
2018-03-08T04:02:46.296Z,65.67
2018-03-08T04:05:13.934Z,65.35
2018-03-08T04:07:41.496Z,65.24
2018-03-08T04:10:09.134Z,64.92
2018-03-08T04:12:36.752Z,64.57
2018-03-08T04:15:04.393Z,64.37
2018-03-08T04:17:31.952Z,64.11
2018-03-08T04:19:59.556Z,64.08
2018-03-08T04:22:27.133Z,63.56
2018-03-08T04:24:54.714Z,63.36
2018-03-08T04:27:22.390Z,62.88
2018-03-08T04:29:49.947Z,62.23
2018-03-08T04:32:17.522Z,62.12
2018-03-08T04:34:45.133Z,61.29
2018-03-08T04:37:12.702Z,60.91
2018-03-08T04:39:40.266Z,60.79
2018-03-08T04:42:07.913Z,60.66
2018-03-08T04:44:35.542Z,60.82
2018-03-08T04:47:03.105Z,60.63
2018-03-08T04:49:31.000Z,60.99
2018-03-08T04:51:58.736Z,60.71
2018-03-08T04:54:26.307Z,60.90
2018-03-08T04:56:53.990Z,60.44
2018-03-08T04:59:21.634Z,60.59
2018-03-08T05:01:49.310Z,60.22
2018-03-08T05:04:16.953Z,60.13
2018-03-08T05:06:44.524Z,60.32
2018-03-08T05:09:12.089Z,59.82
2018-03-08T05:11:39.733Z,59.62
2018-03-08T05:14:07.306Z,59.28
2018-03-08T05:16:35.818Z,59.34
2018-03-08T05:19:03.450Z,59.26
2018-03-08T05:21:31.032Z,59.06
2018-03-08T05:23:58.607Z,59.01
2018-03-08T05:26:27.286Z,58.47
2018-03-08T05:28:54.853Z,58.55
2018-03-08T05:31:22.425Z,58.41
2018-03-08T05:33:50.036Z,58.03
2018-03-08T05:36:17.672Z,57.55
2018-03-08T05:38:45.247Z,57.66
2018-03-08T05:41:12.899Z,57.86
2018-03-08T05:43:40.493Z,57.16
2018-03-08T05:46:08.078Z,57.45
2018-03-08T05:48:35.823Z,57.72
2018-03-08T05:51:03.391Z,57.62
2018-03-08T05:53:30.958Z,57.41
2018-03-08T05:55:58.811Z,57.83
2018-03-08T05:58:26.384Z,58.90
2018-03-08T06:00:53.964Z,59.77
2018-03-08T06:03:22.627Z,60.99
2018-03-08T06:05:50.192Z,61.47
2018-03-08T06:08:17.757Z,62.06
2018-03-08T06:10:45.449Z,61.64
2018-03-08T06:13:13.096Z,62.46
2018-03-08T06:15:41.634Z,62.98
2018-03-08T06:18:09.343Z,62.91
2018-03-08T06:20:36.947Z,62.41
2018-03-08T06:23:04.570Z,63.52
2018-03-08T06:25:32.208Z,64.38
2018-03-08T06:27:59.768Z,63.49
2018-03-08T06:30:27.370Z,63.00
2018-03-08T06:32:55.230Z,62.93
2018-03-08T06:35:22.829Z,61.32
2018-03-08T06:37:51.349Z,60.11
2018-03-08T06:40:19.000Z,59.21
2018-03-08T06:42:47.176Z,58.19
2018-03-08T06:45:14.758Z,57.77
2018-03-08T06:47:42.602Z,56.47
2018-03-08T06:50:10.258Z,56.88
2018-03-08T06:52:37.894Z,57.53
2018-03-08T06:55:05.586Z,57.85
2018-03-08T06:57:33.143Z,56.68
2018-03-08T07:00:00.755Z,57.60
2018-03-08T07:02:28.415Z,56.61
2018-03-08T07:04:56.581Z,57.64
2018-03-08T07:07:24.222Z,56.65
2018-03-08T07:09:51.947Z,56.22
2018-03-08T07:12:19.529Z,55.52
2018-03-08T07:14:47.101Z,56.15
2018-03-08T07:17:14.738Z,56.31
2018-03-08T07:19:42.507Z,55.61
2018-03-08T07:22:10.371Z,55.56
2018-03-08T07:24:38.005Z,54.14
2018-03-08T07:27:05.599Z,54.44
2018-03-08T07:29:33.176Z,53.57
2018-03-08T07:32:00.810Z,53.24
2018-03-08T07:34:28.402Z,52.98
2018-03-08T07:36:55.995Z,52.49
2018-03-08T07:39:23.705Z,50.47
2018-03-08T07:41:51.370Z,48.93
2018-03-08T07:44:18.939Z,47.22
2018-03-08T07:46:46.863Z,45.54
2018-03-08T07:49:14.509Z,44.95
2018-03-08T07:51:42.091Z,44.20
2018-03-08T07:54:09.998Z,43.99
2018-03-08T07:56:37.656Z,42.48
2018-03-08T07:59:05.883Z,42.10
2018-03-08T08:01:33.536Z,41.35
2018-03-08T08:04:01.091Z,41.05
2018-03-08T08:09:46.489Z,41.30
2018-03-08T08:12:14.119Z,42.21
2018-03-08T08:14:42.260Z,40.68
2018-03-08T08:17:09.857Z,40.31
2018-03-08T08:19:37.726Z,43.77
2018-03-08T08:22:05.425Z,44.54
2018-03-08T08:24:33.048Z,45.69
2018-03-08T08:27:00.693Z,46.24
2018-03-08T08:29:28.270Z,47.64
2018-03-08T08:31:55.838Z,48.43
2018-03-08T08:34:23.518Z,46.87
2018-03-08T08:36:51.100Z,46.85
2018-03-08T08:39:18.664Z,47.26
2018-03-08T08:41:46.294Z,46.44
2018-03-08T08:44:13.887Z,46.90
2018-03-08T08:46:41.575Z,47.50
2018-03-08T08:49:09.184Z,48.13
2018-03-08T08:51:36.950Z,46.86
2018-03-08T08:54:04.648Z,47.91
2018-03-08T08:56:32.554Z,47.87
2018-03-08T08:59:00.134Z,47.55
2018-03-08T09:01:27.728Z,47.53
2018-03-08T09:03:55.365Z,48.27
2018-03-08T09:06:22.942Z,51.32
2018-03-08T09:08:51.256Z,51.52
2018-03-08T09:11:19.464Z,52.30
2018-03-08T09:13:47.049Z,53.27
2018-03-08T09:16:14.624Z,53.37
2018-03-08T09:18:42.323Z,52.23
2018-03-08T09:21:10.744Z,53.21
2018-03-08T09:23:38.457Z,53.79
2018-03-08T09:26:06.366Z,51.50
2018-03-08T09:28:33.957Z,51.22
2018-03-08T09:31:01.548Z,52.06
2018-03-08T09:33:29.438Z,52.62
2018-03-08T09:35:57.010Z,51.26
2018-03-08T09:38:24.585Z,51.64
2018-03-08T09:40:52.930Z,51.23
2018-03-08T09:43:20.511Z,49.79
2018-03-08T09:45:48.086Z,47.73
2018-03-08T09:48:15.708Z,46.37
2018-03-08T09:50:43.517Z,46.81
2018-03-08T09:53:11.087Z,47.88
2018-03-08T09:55:38.726Z,45.22
2018-03-08T09:58:06.285Z,46.75
2018-03-08T10:00:33.919Z,46.38
2018-03-08T10:03:01.595Z,45.51
2018-03-08T10:05:29.235Z,45.15
2018-03-08T10:07:56.867Z,44.96
2018-03-08T10:10:24.561Z,45.37
2018-03-08T10:12:52.173Z,43.69
2018-03-08T10:15:19.765Z,43.60
2018-03-08T10:17:47.746Z,44.97
2018-03-08T10:20:15.303Z,44.92
2018-03-08T10:22:42.959Z,44.65
2018-03-08T10:25:10.907Z,45.58
2018-03-08T10:27:38.472Z,45.80
2018-03-08T10:30:06.078Z,45.92
2018-03-08T10:32:33.702Z,47.43
2018-03-08T10:35:01.270Z,45.88
2018-03-08T10:37:28.849Z,45.40
2018-03-08T10:39:57.015Z,46.67
2018-03-08T10:44:52.223Z,46.46
2018-03-08T10:47:19.871Z,45.95
2018-03-08T10:49:47.506Z,46.47
2018-03-08T10:52:15.092Z,46.95
2018-03-08T10:54:43.034Z,45.57
2018-03-08T10:57:10.611Z,46.32
2018-03-08T10:59:38.172Z,47.28
2018-03-08T11:02:11.646Z,46.24
2018-03-08T11:04:39.233Z,47.35
2018-03-08T11:07:06.809Z,48.45
2018-03-08T11:09:34.494Z,48.18
2018-03-08T11:12:02.082Z,47.30
2018-03-08T11:14:29.742Z,48.61
2018-03-08T11:16:57.379Z,49.42
2018-03-08T11:19:24.955Z,48.72
2018-03-08T11:21:52.538Z,48.01
2018-03-08T11:24:20.518Z,48.28
2018-03-08T11:26:48.218Z,48.17
2018-03-08T11:29:15.806Z,49.33
2018-03-08T11:31:43.704Z,49.29
2018-03-08T11:34:11.292Z,48.25
2018-03-08T11:36:39.532Z,48.35
2018-03-08T11:39:07.655Z,47.49
2018-03-08T11:41:35.237Z,47.60
2018-03-08T11:44:02.828Z,47.62
2018-03-08T11:46:30.452Z,48.81
2018-03-08T11:48:58.012Z,48.19
2018-03-08T11:51:27.007Z,47.92
2018-03-08T11:53:54.622Z,47.95
2018-03-08T11:56:22.189Z,47.88
2018-03-08T11:58:49.755Z,48.38
2018-03-08T12:01:17.628Z,48.49
2018-03-08T12:03:45.187Z,48.47
2018-03-08T12:06:12.766Z,48.81
2018-03-08T12:08:40.681Z,49.04
2018-03-08T12:11:08.242Z,49.20
2018-03-08T12:13:35.822Z,48.03
2018-03-08T12:16:03.487Z,48.99
2018-03-08T12:18:31.121Z,48.72
2018-03-08T12:20:59.499Z,49.65
2018-03-08T12:23:27.129Z,50.54
2018-03-08T12:25:54.701Z,51.31
2018-03-08T12:28:23.275Z,51.66
2018-03-08T12:30:50.876Z,53.00
2018-03-08T12:33:18.453Z,53.82
2018-03-08T12:35:46.062Z,54.21
2018-03-08T12:38:13.676Z,55.61
2018-03-08T12:40:41.282Z,56.17
2018-03-08T12:43:08.888Z,55.69
2018-03-08T12:45:36.507Z,55.50
2018-03-08T12:48:04.132Z,56.20
2018-03-08T12:50:31.692Z,56.65
2018-03-08T12:52:59.341Z,57.25
2018-03-08T12:55:26.946Z,58.04
2018-03-08T12:57:54.534Z,57.87
2018-03-08T13:00:22.149Z,57.84
2018-03-08T13:02:49.786Z,58.95
2018-03-08T13:05:17.383Z,57.41
2018-03-08T13:07:45.230Z,58.95
2018-03-08T13:10:12.858Z,59.63
2018-03-08T13:12:40.442Z,59.29
2018-03-08T13:15:08.085Z,60.28
2018-03-08T13:17:36.841Z,59.47
2018-03-08T13:20:04.468Z,60.76
2018-03-08T13:22:32.417Z,61.16
2018-03-08T13:25:00.136Z,61.88
2018-03-08T13:27:28.120Z,62.76
2018-03-08T13:29:56.154Z,63.61
2018-03-08T13:32:23.709Z,64.79
2018-03-08T13:34:51.269Z,66.44
2018-03-08T13:37:18.878Z,66.32
2018-03-08T13:39:47.043Z,66.57
2018-03-08T13:42:14.609Z,66.95
2018-03-08T13:44:43.185Z,68.63
2018-03-08T13:47:10.761Z,68.02
2018-03-08T13:49:38.382Z,68.50
2018-03-08T13:52:06.010Z,68.58
2018-03-08T13:54:33.588Z,67.29
2018-03-08T13:57:01.160Z,66.11
2018-03-08T13:59:28.871Z,67.11
2018-03-08T14:01:56.424Z,65.55
2018-03-08T14:04:23.993Z,65.99
2018-03-08T14:06:51.611Z,66.00
2018-03-08T14:09:19.269Z,66.31
2018-03-08T14:11:46.936Z,66.10
2018-03-08T14:14:14.540Z,65.29
2018-03-08T14:16:42.136Z,67.05
2018-03-08T14:19:10.444Z,66.19
2018-03-08T14:21:38.089Z,66.13
2018-03-08T14:24:05.658Z,67.12
2018-03-08T14:26:33.295Z,67.06
2018-03-08T14:29:00.916Z,66.05
2018-03-08T14:31:28.504Z,66.61
2018-03-08T14:33:56.068Z,67.12
2018-03-08T14:36:23.698Z,67.42
2018-03-08T14:38:51.279Z,67.43
2018-03-08T14:41:18.857Z,67.34
2018-03-08T14:43:46.456Z,67.00
2018-03-08T14:46:14.096Z,66.17
2018-03-08T14:48:41.673Z,66.78
2018-03-08T14:51:09.292Z,65.91
2018-03-08T14:53:36.871Z,66.08
2018-03-08T14:56:04.452Z,66.86
2018-03-08T14:58:32.056Z,67.19
2018-03-08T15:00:59.690Z,65.82
2018-03-08T15:03:27.304Z,66.30
2018-03-08T15:05:54.922Z,66.28
2018-03-08T15:08:22.515Z,66.05
2018-03-08T15:10:50.077Z,66.16
2018-03-08T15:13:17.999Z,66.83
2018-03-08T15:15:45.663Z,66.67
2018-03-08T15:18:13.223Z,66.14
2018-03-08T15:20:41.177Z,65.46
2018-03-08T15:23:08.812Z,66.49
2018-03-08T15:25:36.397Z,66.07
2018-03-08T15:28:04.091Z,65.97
2018-03-08T15:30:31.676Z,65.14
2018-03-08T15:32:59.365Z,65.69
2018-03-08T15:35:26.998Z,66.05
2018-03-08T15:37:54.653Z,65.71
2018-03-08T15:40:23.056Z,66.06
2018-03-08T15:42:50.684Z,66.21
2018-03-08T15:45:18.251Z,66.25
2018-03-08T15:47:45.809Z,66.22
2018-03-08T15:50:13.441Z,66.43
2018-03-08T15:52:41.010Z,66.51
2018-03-08T15:55:08.612Z,66.39
2018-03-08T15:57:36.462Z,66.26
2018-03-08T16:00:04.334Z,66.39
2018-03-08T16:02:31.922Z,66.35
2018-03-08T16:04:59.747Z,65.74
2018-03-08T16:10:45.524Z,65.82
2018-03-08T16:13:13.140Z,66.04
2018-03-08T16:15:40.736Z,65.50
2018-03-08T16:18:08.449Z,66.08
2018-03-08T16:20:36.039Z,66.03
2018-03-08T16:23:03.633Z,66.07
2018-03-08T16:25:31.287Z,66.17
2018-03-08T16:31:03.813Z,65.73
2018-03-08T16:33:31.533Z,66.09
2018-03-08T16:35:59.125Z,66.26
2018-03-08T16:38:27.650Z,66.22
2018-03-08T16:40:55.215Z,67.17
2018-03-08T16:43:22.841Z,68.35
2018-03-08T16:45:50.458Z,68.00
2018-03-08T16:48:18.036Z,68.03
2018-03-08T16:50:45.655Z,68.55
2018-03-08T16:53:13.370Z,67.96
2018-03-08T16:55:40.928Z,69.34
2018-03-08T16:58:08.505Z,70.05
2018-03-08T17:00:37.057Z,71.52
2018-03-08T17:03:04.638Z,71.53
2018-03-08T17:05:32.205Z,71.83
2018-03-08T17:07:59.868Z,71.48
2018-03-08T17:10:27.439Z,71.22
2018-03-08T17:12:54.993Z,72.08
2018-03-08T17:15:22.650Z,72.47
2018-03-08T17:17:50.329Z,72.63
2018-03-08T17:20:17.900Z,72.19
2018-03-08T17:22:45.521Z,72.67
2018-03-08T17:25:13.096Z,72.74
2018-03-08T17:27:40.678Z,72.98
2018-03-08T17:30:08.362Z,73.15
2018-03-08T17:32:36.091Z,72.93
2018-03-08T17:35:03.838Z,73.35
2018-03-08T17:37:31.689Z,73.51
2018-03-08T17:39:59.314Z,73.16
2018-03-08T17:42:26.899Z,73.93
2018-03-08T17:44:54.510Z,73.57
2018-03-08T17:47:22.085Z,72.94
2018-03-08T17:49:49.666Z,73.33
2018-03-08T17:52:17.284Z,73.85
2018-03-08T17:54:45.540Z,72.91
2018-03-08T17:57:13.171Z,73.21
2018-03-08T17:59:40.846Z,73.39
2018-03-08T18:02:08.496Z,73.02
2018-03-08T18:04:36.080Z,73.87
2018-03-08T18:07:04.022Z,73.74
2018-03-08T18:09:31.609Z,73.69
2018-03-08T18:11:59.180Z,73.64
2018-03-08T18:14:27.114Z,74.05
2018-03-08T18:16:54.700Z,73.88
2018-03-08T18:19:22.264Z,73.87
2018-03-08T18:21:49.909Z,74.18
2018-03-08T18:24:17.512Z,74.77
2018-03-08T18:26:45.081Z,75.03
2018-03-08T18:29:12.760Z,74.95
2018-03-08T18:31:40.348Z,75.00
2018-03-08T18:34:07.918Z,75.06
2018-03-08T18:36:35.805Z,75.56
2018-03-08T18:39:03.443Z,75.67
2018-03-08T18:41:31.012Z,75.51
2018-03-08T18:43:58.624Z,75.75
2018-03-08T18:46:26.198Z,75.48
2018-03-08T18:48:53.826Z,74.83
2018-03-08T18:51:22.111Z,74.64
2018-03-08T18:53:49.712Z,74.66
2018-03-08T18:56:17.288Z,74.23
2018-03-08T18:58:45.165Z,74.73
2018-03-08T19:01:12.799Z,75.15
2018-03-08T19:03:40.372Z,74.85
2018-03-08T19:06:08.047Z,73.17
2018-03-08T19:08:35.612Z,73.57
2018-03-08T19:11:03.223Z,73.70
2018-03-08T19:13:30.869Z,73.18
2018-03-08T19:15:58.542Z,74.11
2018-03-08T19:18:26.184Z,74.75
2018-03-08T19:20:53.858Z,75.18
2018-03-08T19:23:21.506Z,75.35
2018-03-08T19:25:49.086Z,75.49
2018-03-08T19:28:17.208Z,75.57
2018-03-08T19:30:44.943Z,75.84
2018-03-08T19:33:13.065Z,75.82
2018-03-08T19:35:40.689Z,76.38
2018-03-08T19:38:08.569Z,76.36
2018-03-08T19:40:36.136Z,75.99
2018-03-08T19:43:03.758Z,76.52
2018-03-08T19:45:31.310Z,76.43
2018-03-08T19:47:58.868Z,76.36
2018-03-08T19:50:26.505Z,76.09
2018-03-08T19:52:54.071Z,76.29
2018-03-08T19:55:21.674Z,76.00
2018-03-08T19:57:49.283Z,76.53
2018-03-08T20:00:16.882Z,75.73
2018-03-08T20:02:44.476Z,76.21
2018-03-08T20:05:12.336Z,75.92
2018-03-08T20:07:39.903Z,76.32
2018-03-08T20:10:07.470Z,76.02
2018-03-08T20:12:35.060Z,76.94
2018-03-08T20:15:02.646Z,77.12
2018-03-08T20:17:30.226Z,76.53
2018-03-08T20:19:57.856Z,77.03
2018-03-08T20:22:25.430Z,77.33
2018-03-08T20:24:53.000Z,76.66
2018-03-08T20:27:20.612Z,76.45
2018-03-08T20:29:48.185Z,76.28
2018-03-08T20:32:15.771Z,76.48
2018-03-08T20:34:43.483Z,75.38
2018-03-08T20:37:11.130Z,75.22
2018-03-08T20:39:38.797Z,76.04
2018-03-08T20:42:06.689Z,75.90
2018-03-08T20:44:34.252Z,76.69
2018-03-08T20:47:02.222Z,76.29
2018-03-08T20:49:29.860Z,76.16
2018-03-08T20:51:57.649Z,76.79
2018-03-08T20:54:25.338Z,76.85
2018-03-08T20:56:52.967Z,76.68
2018-03-08T20:59:20.550Z,76.66
2018-03-08T21:01:48.128Z,76.83
2018-03-08T21:04:15.778Z,76.77
2018-03-08T21:06:43.385Z,77.40
2018-03-08T21:09:10.964Z,77.77
2018-03-08T21:11:38.588Z,77.19
2018-03-08T21:14:06.163Z,77.59
2018-03-08T21:16:33.803Z,77.19
2018-03-08T21:19:01.700Z,77.38
2018-03-08T21:21:29.274Z,77.22
2018-03-08T21:23:56.840Z,77.06
2018-03-08T21:26:24.530Z,77.49
2018-03-08T21:28:52.076Z,77.25
2018-03-08T21:31:19.641Z,77.25
2018-03-08T21:33:47.266Z,76.60
2018-03-08T21:36:14.863Z,76.12
2018-03-08T21:38:42.420Z,76.74
2018-03-08T21:41:10.877Z,75.86
2018-03-08T21:43:39.265Z,76.41
2018-03-08T21:46:06.856Z,76.36
2018-03-08T21:48:34.542Z,75.68
2018-03-08T21:51:02.104Z,76.06
2018-03-08T21:53:29.735Z,76.44
2018-03-08T21:56:00.226Z,76.46
2018-03-08T21:58:27.800Z,76.37
2018-03-08T22:00:55.369Z,77.49
2018-03-08T22:03:23.313Z,77.78
2018-03-08T22:05:50.887Z,77.98
2018-03-08T22:08:18.463Z,78.51
2018-03-08T22:10:46.141Z,78.55
2018-03-08T22:13:13.790Z,78.76
2018-03-08T22:15:41.372Z,79.12
2018-03-08T22:18:09.491Z,79.15
2018-03-08T22:20:37.106Z,79.46
2018-03-08T22:23:04.765Z,79.41
2018-03-08T22:25:32.377Z,78.37
2018-03-08T22:27:59.940Z,78.61
2018-03-08T22:30:27.506Z,78.86
2018-03-08T22:32:55.120Z,78.61
2018-03-08T22:35:22.689Z,78.27
2018-03-08T22:37:50.325Z,78.31
2018-03-08T22:40:17.978Z,78.66
2018-03-08T22:42:45.626Z,78.71
2018-03-08T22:45:13.212Z,78.56
2018-03-08T22:47:40.821Z,78.61
2018-03-08T22:50:08.945Z,78.71
2018-03-08T22:52:37.116Z,78.97
2018-03-08T22:55:05.452Z,78.67
2018-03-08T22:57:33.025Z,78.38
2018-03-08T23:00:00.572Z,77.57
2018-03-08T23:02:34.038Z,77.20
2018-03-08T23:05:01.592Z,78.09
2018-03-08T23:07:29.149Z,78.88
2018-03-08T23:09:57.076Z,78.30
2018-03-08T23:12:24.655Z,78.85
2018-03-08T23:14:52.275Z,79.07
2018-03-08T23:17:19.880Z,79.21
2018-03-08T23:19:47.505Z,78.66
2018-03-08T23:22:15.084Z,79.03
2018-03-08T23:24:42.699Z,78.66
2018-03-08T23:27:10.346Z,79.22
2018-03-08T23:29:37.979Z,79.21
2018-03-08T23:32:05.585Z,78.91
2018-03-08T23:34:33.208Z,78.51
2018-03-08T23:37:00.830Z,79.18
2018-03-08T23:39:28.464Z,79.37
2018-03-08T23:41:56.048Z,78.98
2018-03-08T23:44:23.798Z,79.20
2018-03-08T23:46:51.700Z,79.13
2018-03-08T23:49:19.269Z,79.71
2018-03-08T23:51:46.887Z,79.90
2018-03-08T23:54:14.495Z,79.53
2018-03-08T23:56:42.066Z,79.28
2018-03-08T23:59:09.636Z,79.62
